sensor_id;sensor_type;location;lat;lon;timestamp;pressure;altitude;pressure_sealevel;temperature;humidity
39075;BME280;24826;52.070;20.970;2023-04-01T00:01:51;61482.19;;;-147.04;100.00
39075;BME280;24826;52.070;20.970;2023-04-01T00:04:35;61470.25;;;-147.04;100.00
39075;BME280;24826;52.070;20.970;2023-04-01T00:07:20;61482.19;;;-147.04;100.00
39075;BME280;24826;52.070;20.970;2023-04-01T00:10:06;61444.41;;;-147.04;100.00
39075;BME280;24826;52.070;20.970;2023-04-01T00:12:51;61460.31;;;-147.04;100.00
39075;BME280;24826;52.070;20.970;2023-04-01T00:15:36;61460.31;;;-147.04;100.00
39075;BME280;24826;52.070;20.970;2023-04-01T00:18:21;61430.47;;;-147.04;100.00
39075;BME280;24826;52.070;20.970;2023-04-01T00:21:06;61444.41;;;-147.04;100.00
39075;BME280;24826;52.070;20.970;2023-04-01T00:23:51;61464.28;;;-147.04;100.00
39075;BME280;24826;52.070;20.970;2023-04-01T00:26:35;61519.94;;;-147.04;100.00
39075;BME280;24826;52.070;20.970;2023-04-01T00:29:20;61434.44;;;-147.04;100.00
39075;BME280;24826;52.070;20.970;2023-04-01T00:32:04;61454.34;;;-147.04;100.00
39075;BME280;24826;52.070;20.970;2023-04-01T00:34:50;61444.41;;;-147.04;100.00
39075;BME280;24826;52.070;20.970;2023-04-01T00:37:36;61438.44;;;-147.04;100.00
39075;BME280;24826;52.070;20.970;2023-04-01T00:40:31;61472.22;;;-147.04;100.00
39075;BME280;24826;52.070;20.970;2023-04-01T00:43:19;61464.28;;;-147.04;100.00
39075;BME280;24826;52.070;20.970;2023-04-01T00:46:04;61450.34;;;-147.04;100.00
39075;BME280;24826;52.070;20.970;2023-04-01T00:48:51;61428.47;;;-147.04;100.00
39075;BME280;24826;52.070;20.970;2023-04-01T00:51:38;61436.44;;;-147.04;100.00
39075;BME280;24826;52.070;20.970;2023-04-01T00:54:25;61474.22;;;-147.04;100.00
39075;BME280;24826;52.070;20.970;2023-04-01T00:57:21;61418.53;;;-147.04;100.00
39075;BME280;24826;52.070;20.970;2023-04-01T01:00:10;61464.28;;;-147.04;100.00
39075;BME280;24826;52.070;20.970;2023-04-01T01:02:56;61434.44;;;-147.04;100.00
39075;BME280;24826;52.070;20.970;2023-04-01T01:12:20;61432.47;;;-147.04;100.00
39075;BME280;24826;52.070;20.970;2023-04-01T01:15:26;61428.47;;;-147.04;100.00
39075;BME280;24826;52.070;20.970;2023-04-01T01:24:40;61444.41;;;-147.04;100.00
39075;BME280;24826;52.070;20.970;2023-04-01T01:27:28;61426.50;;;-147.04;100.00
39075;BME280;24826;52.070;20.970;2023-04-01T01:35:54;61490.13;;;-147.04;100.00
39075;BME280;24826;52.070;20.970;2023-04-01T01:38:39;61464.28;;;-147.04;100.00
39075;BME280;24826;52.070;20.970;2023-04-01T01:41:25;61488.13;;;-147.04;100.00
39075;BME280;24826;52.070;20.970;2023-04-01T01:44:12;61440.41;;;-147.04;100.00
39075;BME280;24826;52.070;20.970;2023-04-01T01:46:58;61452.34;;;-147.04;100.00
39075;BME280;24826;52.070;20.970;2023-04-01T01:49:44;61436.44;;;-147.04;100.00
39075;BME280;24826;52.070;20.970;2023-04-01T01:52:29;61452.34;;;-147.04;100.00
39075;BME280;24826;52.070;20.970;2023-04-01T01:55:28;61404.63;;;-147.04;100.00
39075;BME280;24826;52.070;20.970;2023-04-01T01:58:32;61436.44;;;-147.04;100.00
39075;BME280;24826;52.070;20.970;2023-04-01T02:01:24;61472.22;;;-147.04;100.00
39075;BME280;24826;52.070;20.970;2023-04-01T02:04:10;61422.53;;;-147.04;100.00
39075;BME280;24826;52.070;20.970;2023-04-01T02:07:02;61434.44;;;-147.04;100.00
39075;BME280;24826;52.070;20.970;2023-04-01T02:09:48;61456.31;;;-147.04;100.00
39075;BME280;24826;52.070;20.970;2023-04-01T02:12:34;61486.16;;;-147.04;100.00
39075;BME280;24826;52.070;20.970;2023-04-01T02:15:21;61458.31;;;-147.04;100.00
39075;BME280;24826;52.070;20.970;2023-04-01T02:18:05;61420.53;;;-147.04;100.00
39075;BME280;24826;52.070;20.970;2023-04-01T02:20:51;61456.31;;;-147.04;100.00
39075;BME280;24826;52.070;20.970;2023-04-01T02:23:36;61444.41;;;-147.04;100.00
39075;BME280;24826;52.070;20.970;2023-04-01T02:26:22;61448.38;;;-147.04;100.00
39075;BME280;24826;52.070;20.970;2023-04-01T02:29:11;61424.50;;;-147.04;100.00
39075;BME280;24826;52.070;20.970;2023-04-01T02:31:55;61378.78;;;-147.04;100.00
39075;BME280;24826;52.070;20.970;2023-04-01T02:34:40;61460.31;;;-147.04;100.00
39075;BME280;24826;52.070;20.970;2023-04-01T02:37:26;61422.53;;;-147.04;100.00
39075;BME280;24826;52.070;20.970;2023-04-01T02:40:13;61444.41;;;-147.04;100.00
39075;BME280;24826;52.070;20.970;2023-04-01T02:42:57;61416.56;;;-147.04;100.00
39075;BME280;24826;52.070;20.970;2023-04-01T02:45:43;61426.50;;;-147.04;100.00
39075;BME280;24826;52.070;20.970;2023-04-01T02:48:28;61404.63;;;-147.04;100.00
39075;BME280;24826;52.070;20.970;2023-04-01T02:51:12;61404.63;;;-147.04;100.00
39075;BME280;24826;52.070;20.970;2023-04-01T02:53:56;61392.69;;;-147.04;100.00
39075;BME280;24826;52.070;20.970;2023-04-01T02:56:41;61414.56;;;-147.04;100.00
39075;BME280;24826;52.070;20.970;2023-04-01T02:59:25;61412.56;;;-147.04;100.00
39075;BME280;24826;52.070;20.970;2023-04-01T03:02:10;61434.44;;;-147.04;100.00
39075;BME280;24826;52.070;20.970;2023-04-01T03:04:54;61458.31;;;-147.04;100.00
39075;BME280;24826;52.070;20.970;2023-04-01T03:07:38;61416.56;;;-147.04;100.00
39075;BME280;24826;52.070;20.970;2023-04-01T03:10:22;61420.53;;;-147.04;100.00
39075;BME280;24826;52.070;20.970;2023-04-01T03:13:08;61420.53;;;-147.04;100.00
39075;BME280;24826;52.070;20.970;2023-04-01T03:15:52;61416.56;;;-147.04;100.00
39075;BME280;24826;52.070;20.970;2023-04-01T03:18:37;61456.31;;;-147.04;100.00
39075;BME280;24826;52.070;20.970;2023-04-01T03:21:23;61452.34;;;-147.04;100.00
39075;BME280;24826;52.070;20.970;2023-04-01T03:24:07;61430.47;;;-147.04;100.00
39075;BME280;24826;52.070;20.970;2023-04-01T03:26:52;61414.56;;;-147.04;100.00
39075;BME280;24826;52.070;20.970;2023-04-01T03:29:36;61468.25;;;-147.04;100.00
39075;BME280;24826;52.070;20.970;2023-04-01T03:32:20;61418.53;;;-147.04;100.00
39075;BME280;24826;52.070;20.970;2023-04-01T03:35:05;61440.41;;;-147.04;100.00
39075;BME280;24826;52.070;20.970;2023-04-01T03:37:51;61384.75;;;-147.04;100.00
39075;BME280;24826;52.070;20.970;2023-04-01T03:40:36;61424.50;;;-147.04;100.00
39075;BME280;24826;52.070;20.970;2023-04-01T03:43:22;61424.50;;;-147.04;100.00
39075;BME280;24826;52.070;20.970;2023-04-01T03:46:07;61412.56;;;-147.04;100.00
39075;BME280;24826;52.070;20.970;2023-04-01T03:48:51;61418.53;;;-147.04;100.00
39075;BME280;24826;52.070;20.970;2023-04-01T03:51:36;61402.63;;;-147.04;100.00
39075;BME280;24826;52.070;20.970;2023-04-01T03:54:20;61378.78;;;-147.04;100.00
39075;BME280;24826;52.070;20.970;2023-04-01T03:57:05;61400.66;;;-147.04;100.00
39075;BME280;24826;52.070;20.970;2023-04-01T03:59:50;61424.50;;;-147.04;100.00
39075;BME280;24826;52.070;20.970;2023-04-01T04:02:34;61464.28;;;-147.04;100.00
39075;BME280;24826;52.070;20.970;2023-04-01T04:05:19;61426.50;;;-147.04;100.00
39075;BME280;24826;52.070;20.970;2023-04-01T04:08:04;61416.56;;;-147.04;100.00
39075;BME280;24826;52.070;20.970;2023-04-01T04:10:54;61422.53;;;-147.04;100.00
39075;BME280;24826;52.070;20.970;2023-04-01T04:13:39;61432.47;;;-147.04;100.00
39075;BME280;24826;52.070;20.970;2023-04-01T04:16:24;61428.47;;;-147.04;100.00
39075;BME280;24826;52.070;20.970;2023-04-01T04:19:08;61402.63;;;-147.04;100.00
39075;BME280;24826;52.070;20.970;2023-04-01T04:21:52;61450.34;;;-147.04;100.00
39075;BME280;24826;52.070;20.970;2023-04-01T04:24:37;61424.50;;;-147.04;100.00
39075;BME280;24826;52.070;20.970;2023-04-01T04:27:22;61424.50;;;-147.04;100.00
39075;BME280;24826;52.070;20.970;2023-04-01T04:30:07;61492.13;;;-147.04;100.00
39075;BME280;24826;52.070;20.970;2023-04-01T04:32:51;61456.31;;;-147.04;100.00
39075;BME280;24826;52.070;20.970;2023-04-01T04:35:36;61442.41;;;-147.04;100.00
39075;BME280;24826;52.070;20.970;2023-04-01T04:38:20;61428.47;;;-147.04;100.00
39075;BME280;24826;52.070;20.970;2023-04-01T04:41:13;61494.09;;;-147.04;100.00
39075;BME280;24826;52.070;20.970;2023-04-01T04:43:57;61472.22;;;-147.04;100.00
39075;BME280;24826;52.070;20.970;2023-04-01T04:46:42;61575.63;;;-147.04;100.00
39075;BME280;24826;52.070;20.970;2023-04-01T04:49:26;61504.03;;;-147.04;100.00
39075;BME280;24826;52.070;20.970;2023-04-01T04:52:11;61488.13;;;-147.04;100.00
39075;BME280;24826;52.070;20.970;2023-04-01T04:54:55;61464.28;;;-147.04;100.00
39075;BME280;24826;52.070;20.970;2023-04-01T04:57:39;61464.28;;;-147.04;100.00
39075;BME280;24826;52.070;20.970;2023-04-01T05:00:23;61488.13;;;-147.04;100.00
39075;BME280;24826;52.070;20.970;2023-04-01T05:03:09;61460.31;;;-147.04;100.00
39075;BME280;24826;52.070;20.970;2023-04-01T05:05:54;61452.34;;;-147.04;100.00
39075;BME280;24826;52.070;20.970;2023-04-01T05:08:39;61490.13;;;-147.04;100.00
39075;BME280;24826;52.070;20.970;2023-04-01T05:11:24;61468.25;;;-147.04;100.00
39075;BME280;24826;52.070;20.970;2023-04-01T05:14:15;61535.88;;;-147.04;100.00
39075;BME280;24826;52.070;20.970;2023-04-01T05:16:59;61482.19;;;-147.04;100.00
39075;BME280;24826;52.070;20.970;2023-04-01T05:19:44;61468.25;;;-147.04;100.00
39075;BME280;24826;52.070;20.970;2023-04-01T05:22:28;61517.97;;;-147.04;100.00
39075;BME280;24826;52.070;20.970;2023-04-01T05:25:13;61537.84;;;-147.04;100.00
39075;BME280;24826;52.070;20.970;2023-04-01T05:27:57;61559.72;;;-147.04;100.00
39075;BME280;24826;52.070;20.970;2023-04-01T05:30:43;61525.91;;;-147.04;100.00
39075;BME280;24826;52.070;20.970;2023-04-01T05:33:27;61462.28;;;-147.04;100.00
39075;BME280;24826;52.070;20.970;2023-04-01T05:36:14;61508.03;;;-147.04;100.00
39075;BME280;24826;52.070;20.970;2023-04-01T05:38:59;61496.09;;;-147.04;100.00
39075;BME280;24826;52.070;20.970;2023-04-01T05:41:43;61535.88;;;-147.04;100.00
39075;BME280;24826;52.070;20.970;2023-04-01T05:44:27;61551.78;;;-147.04;100.00
39075;BME280;24826;52.070;20.970;2023-04-01T05:47:12;61537.84;;;-147.04;100.00
39075;BME280;24826;52.070;20.970;2023-04-01T05:49:56;61581.59;;;-147.04;100.00
39075;BME280;24826;52.070;20.970;2023-04-01T05:52:41;61591.53;;;-147.04;100.00
39075;BME280;24826;52.070;20.970;2023-04-01T05:55:25;61581.59;;;-147.04;100.00
39075;BME280;24826;52.070;20.970;2023-04-01T05:58:10;61714.84;;;-147.04;100.00
39075;BME280;24826;52.070;20.970;2023-04-01T06:01:00;61587.56;;;-147.04;100.00
39075;BME280;24826;52.070;20.970;2023-04-01T06:03:46;61551.78;;;-147.04;100.00
39075;BME280;24826;52.070;20.970;2023-04-01T06:06:31;61547.78;;;-147.04;100.00
39075;BME280;24826;52.070;20.970;2023-04-01T06:09:19;61591.53;;;-147.04;100.00
39075;BME280;24826;52.070;20.970;2023-04-01T06:27:06;61529.91;;;-147.04;100.00
39075;BME280;24826;52.070;20.970;2023-04-01T06:30:10;61517.97;;;-147.04;100.00
39075;BME280;24826;52.070;20.970;2023-04-01T06:36:26;61537.84;;;-147.04;100.00
39075;BME280;24826;52.070;20.970;2023-04-01T06:45:35;61569.66;;;-147.04;100.00
39075;BME280;24826;52.070;20.970;2023-04-01T06:55:17;61593.53;;;-147.04;100.00
39075;BME280;24826;52.070;20.970;2023-04-01T06:58:11;61557.75;;;-147.04;100.00
39075;BME280;24826;52.070;20.970;2023-04-01T07:01:07;61555.75;;;-147.04;100.00
39075;BME280;24826;52.070;20.970;2023-04-01T07:03:59;61555.75;;;-147.04;100.00
39075;BME280;24826;52.070;20.970;2023-04-01T07:09:41;61583.59;;;-147.04;100.00
39075;BME280;24826;52.070;20.970;2023-04-01T07:18:16;61551.78;;;-147.04;100.00
39075;BME280;24826;52.070;20.970;2023-04-01T07:21:02;61527.91;;;-147.04;100.00
39075;BME280;24826;52.070;20.970;2023-04-01T07:23:47;61577.63;;;-147.04;100.00
39075;BME280;24826;52.070;20.970;2023-04-01T07:26:32;61619.38;;;-147.04;100.00
39075;BME280;24826;52.070;20.970;2023-04-01T07:29:16;61595.53;;;-147.04;100.00
39075;BME280;24826;52.070;20.970;2023-04-01T07:32:24;61591.53;;;-147.04;100.00
39075;BME280;24826;52.070;20.970;2023-04-01T07:35:29;61647.22;;;-147.04;100.00
39075;BME280;24826;52.070;20.970;2023-04-01T07:38:32;61611.44;;;-147.04;100.00
39075;BME280;24826;52.070;20.970;2023-04-01T07:41:23;61625.34;;;-147.04;100.00
39075;BME280;24826;52.070;20.970;2023-04-01T07:44:40;61601.47;;;-147.04;100.00
39075;BME280;24826;52.070;20.970;2023-04-01T07:53:38;61506.03;;;-147.04;100.00
39075;BME280;24826;52.070;20.970;2023-04-01T08:05:46;61529.91;;;-147.04;100.00
39075;BME280;24826;52.070;20.970;2023-04-01T08:14:46;61557.75;;;-147.04;100.00
39075;BME280;24826;52.070;20.970;2023-04-01T08:23:22;61571.66;;;-147.04;100.00
39075;BME280;24826;52.070;20.970;2023-04-01T08:26:14;61559.72;;;-147.04;100.00
39075;BME280;24826;52.070;20.970;2023-04-01T08:29:22;61611.44;;;-147.04;100.00
39075;BME280;24826;52.070;20.970;2023-04-01T08:32:17;61641.25;;;-147.04;100.00
39075;BME280;24826;52.070;20.970;2023-04-01T08:35:11;61661.13;;;-147.04;100.00
39075;BME280;24826;52.070;20.970;2023-04-01T08:38:11;61627.34;;;-147.04;100.00
39075;BME280;24826;52.070;20.970;2023-04-01T08:41:37;61611.44;;;-147.04;100.00
39075;BME280;24826;52.070;20.970;2023-04-01T08:44:37;61667.09;;;-147.04;100.00
39075;BME280;24826;52.070;20.970;2023-04-01T08:57:00;61637.28;;;-147.04;100.00
39075;BME280;24826;52.070;20.970;2023-04-01T09:00:00;61651.19;;;-147.04;100.00
39075;BME280;24826;52.070;20.970;2023-04-01T09:12:19;61525.91;;;-147.04;100.00
39075;BME280;24826;52.070;20.970;2023-04-01T09:24:56;61599.50;;;-147.04;100.00
39075;BME280;24826;52.070;20.970;2023-04-01T09:40:55;61537.84;;;-147.04;100.00
39075;BME280;24826;52.070;20.970;2023-04-01T09:44:40;61527.91;;;-147.04;100.00
39075;BME280;24826;52.070;20.970;2023-04-01T09:57:04;61515.97;;;-147.04;100.00
39075;BME280;24826;52.070;20.970;2023-04-01T10:19:01;61587.56;;;-147.04;100.00
39075;BME280;24826;52.070;20.970;2023-04-01T10:25:05;61567.69;;;-147.04;100.00
39075;BME280;24826;52.070;20.970;2023-04-01T10:43:05;61587.56;;;-147.04;100.00
39075;BME280;24826;52.070;20.970;2023-04-01T10:45:58;61559.72;;;-147.04;100.00
39075;BME280;24826;52.070;20.970;2023-04-01T11:01:44;61627.34;;;-147.04;100.00
39075;BME280;24826;52.070;20.970;2023-04-01T11:14:17;61551.78;;;-147.04;100.00
39075;BME280;24826;52.070;20.970;2023-04-01T11:17:32;61519.94;;;-147.04;100.00
39075;BME280;24826;52.070;20.970;2023-04-01T11:23:31;61545.81;;;-147.04;100.00
39075;BME280;24826;52.070;20.970;2023-04-01T11:36:20;61613.41;;;-147.04;100.00
39075;BME280;24826;52.070;20.970;2023-04-01T11:40:03;61619.38;;;-147.04;100.00
39075;BME280;24826;52.070;20.970;2023-04-01T11:42:41;61633.31;;;-147.04;100.00
39075;BME280;24826;52.070;20.970;2023-04-01T11:45:39;61651.19;;;-147.04;100.00
39075;BME280;24826;52.070;20.970;2023-04-01T11:49:05;61623.34;;;-147.04;100.00
39075;BME280;24826;52.070;20.970;2023-04-01T11:54:56;61603.47;;;-147.04;100.00
39075;BME280;24826;52.070;20.970;2023-04-01T12:13:31;61647.22;;;-147.04;100.00
39075;BME280;24826;52.070;20.970;2023-04-01T12:19:48;61631.31;;;-147.04;100.00
39075;BME280;24826;52.070;20.970;2023-04-01T12:32:15;61649.22;;;-147.04;100.00
39075;BME280;24826;52.070;20.970;2023-04-01T12:35:13;61653.19;;;-147.04;100.00
39075;BME280;24826;52.070;20.970;2023-04-01T12:44:07;61687.00;;;-147.04;100.00
39075;BME280;24826;52.070;20.970;2023-04-01T12:56:53;61641.25;;;-147.04;100.00
39075;BME280;24826;52.070;20.970;2023-04-01T13:02:55;61661.13;;;-147.04;100.00
39075;BME280;24826;52.070;20.970;2023-04-01T13:09:07;61677.03;;;-147.04;100.00
39075;BME280;24826;52.070;20.970;2023-04-01T13:15:19;61698.91;;;-147.04;100.00
39075;BME280;24826;52.070;20.970;2023-04-01T13:21:19;61677.03;;;-147.04;100.00
39075;BME280;24826;52.070;20.970;2023-04-01T13:27:16;61685.00;;;-147.04;100.00
39075;BME280;24826;52.070;20.970;2023-04-01T13:30:22;61655.16;;;-147.04;100.00
39075;BME280;24826;52.070;20.970;2023-04-01T13:36:28;61869.94;;;-147.04;100.00
39075;BME280;24826;52.070;20.970;2023-04-01T13:42:20;61706.88;;;-147.04;100.00
39075;BME280;24826;52.070;20.970;2023-04-01T13:45:15;61692.97;;;-147.04;100.00
39075;BME280;24826;52.070;20.970;2023-04-01T14:01:17;61694.94;;;-147.04;100.00
39075;BME280;24826;52.070;20.970;2023-04-01T14:04:41;61659.16;;;-147.04;100.00
39075;BME280;24826;52.070;20.970;2023-04-01T14:07:46;61718.81;;;-147.04;100.00
39075;BME280;24826;52.070;20.970;2023-04-01T14:13:41;61685.00;;;-147.04;100.00
39075;BME280;24826;52.070;20.970;2023-04-01T14:19:43;61591.53;;;-147.04;100.00
39075;BME280;24826;52.070;20.970;2023-04-01T14:31:35;61559.72;;;-147.04;100.00
39075;BME280;24826;52.070;20.970;2023-04-01T14:49:52;61531.88;;;-147.04;100.00
39075;BME280;24826;52.070;20.970;2023-04-01T14:52:40;61555.75;;;-147.04;100.00
39075;BME280;24826;52.070;20.970;2023-04-01T14:55:33;61531.88;;;-147.04;100.00
39075;BME280;24826;52.070;20.970;2023-04-01T14:58:20;61515.97;;;-147.04;100.00
39075;BME280;24826;52.070;20.970;2023-04-01T15:01:17;61563.69;;;-147.04;100.00
39075;BME280;24826;52.070;20.970;2023-04-01T15:07:41;61504.03;;;-147.04;100.00
39075;BME280;24826;52.070;20.970;2023-04-01T15:10:38;61539.84;;;-147.04;100.00
39075;BME280;24826;52.070;20.970;2023-04-01T15:13:41;61523.94;;;-147.04;100.00
39075;BME280;24826;52.070;20.970;2023-04-01T15:29:36;61523.94;;;-147.04;100.00
39075;BME280;24826;52.070;20.970;2023-04-01T15:38:24;61512.00;;;-147.04;100.00
39075;BME280;24826;52.070;20.970;2023-04-01T15:41:43;61512.00;;;-147.04;100.00
39075;BME280;24826;52.070;20.970;2023-04-01T15:50:33;61512.00;;;-147.04;100.00
39075;BME280;24826;52.070;20.970;2023-04-01T16:00:22;61456.31;;;-147.04;100.00
39075;BME280;24826;52.070;20.970;2023-04-01T16:03:33;61488.13;;;-147.04;100.00
39075;BME280;24826;52.070;20.970;2023-04-01T16:12:42;61492.13;;;-147.04;100.00
39075;BME280;24826;52.070;20.970;2023-04-01T16:15:47;61446.38;;;-147.04;100.00
39075;BME280;24826;52.070;20.970;2023-04-01T16:22:28;61468.25;;;-147.04;100.00
39075;BME280;24826;52.070;20.970;2023-04-01T16:24:44;61468.25;;;-147.04;100.00
39075;BME280;24826;52.070;20.970;2023-04-01T16:27:53;61515.97;;;-147.04;100.00
39075;BME280;24826;52.070;20.970;2023-04-01T16:30:40;61500.06;;;-147.04;100.00
39075;BME280;24826;52.070;20.970;2023-04-01T16:33:43;61488.13;;;-147.04;100.00
39075;BME280;24826;52.070;20.970;2023-04-01T16:42:28;61492.13;;;-147.04;100.00
39075;BME280;24826;52.070;20.970;2023-04-01T16:48:12;61502.06;;;-147.04;100.00
39075;BME280;24826;52.070;20.970;2023-04-01T16:54:02;61480.19;;;-147.04;100.00
39075;BME280;24826;52.070;20.970;2023-04-01T16:56:56;61484.16;;;-147.04;100.00
39075;BME280;24826;52.070;20.970;2023-04-01T17:02:47;61510.00;;;-147.04;100.00
39075;BME280;24826;52.070;20.970;2023-04-01T17:05:56;61492.13;;;-147.04;100.00
39075;BME280;24826;52.070;20.970;2023-04-01T17:15:15;61512.00;;;-147.04;100.00
39075;BME280;24826;52.070;20.970;2023-04-01T17:18:09;61585.56;;;-147.04;100.00
39075;BME280;24826;52.070;20.970;2023-04-01T17:21:16;61458.31;;;-147.04;100.00
39075;BME280;24826;52.070;20.970;2023-04-01T17:30:30;61464.28;;;-147.04;100.00
39075;BME280;24826;52.070;20.970;2023-04-01T17:46:32;61474.22;;;-147.04;100.00
39075;BME280;24826;52.070;20.970;2023-04-01T17:58:21;61464.28;;;-147.04;100.00
39075;BME280;24826;52.070;20.970;2023-04-01T18:19:45;61452.34;;;-147.04;100.00
39075;BME280;24826;52.070;20.970;2023-04-01T18:22:44;61444.41;;;-147.04;100.00
39075;BME280;24826;52.070;20.970;2023-04-01T18:28:54;61484.16;;;-147.04;100.00
39075;BME280;24826;52.070;20.970;2023-04-01T18:32:00;61571.66;;;-147.04;100.00
39075;BME280;24826;52.070;20.970;2023-04-01T18:35:14;61496.09;;;-147.04;100.00
39075;BME280;24826;52.070;20.970;2023-04-01T18:41:14;61460.31;;;-147.04;100.00
39075;BME280;24826;52.070;20.970;2023-04-01T18:44:42;61450.34;;;-147.04;100.00
39075;BME280;24826;52.070;20.970;2023-04-01T18:51:11;61480.19;;;-147.04;100.00
39075;BME280;24826;52.070;20.970;2023-04-01T18:54:09;61434.44;;;-147.04;100.00
39075;BME280;24826;52.070;20.970;2023-04-01T18:57:12;61468.25;;;-147.04;100.00
39075;BME280;24826;52.070;20.970;2023-04-01T19:00:04;61468.25;;;-147.04;100.00
39075;BME280;24826;52.070;20.970;2023-04-01T19:06:26;61438.44;;;-147.04;100.00
39075;BME280;24826;52.070;20.970;2023-04-01T19:18:37;61446.38;;;-147.04;100.00
39075;BME280;24826;52.070;20.970;2023-04-01T19:21:44;61504.03;;;-147.04;100.00
39075;BME280;24826;52.070;20.970;2023-04-01T19:27:42;61414.56;;;-147.04;100.00
39075;BME280;24826;52.070;20.970;2023-04-01T19:36:59;61460.31;;;-147.04;100.00
39075;BME280;24826;52.070;20.970;2023-04-01T19:43:08;61426.50;;;-147.04;100.00
39075;BME280;24826;52.070;20.970;2023-04-01T19:49:27;61468.25;;;-147.04;100.00
39075;BME280;24826;52.070;20.970;2023-04-01T19:52:28;61472.22;;;-147.04;100.00
39075;BME280;24826;52.070;20.970;2023-04-01T19:58:33;61464.28;;;-147.04;100.00
39075;BME280;24826;52.070;20.970;2023-04-01T20:04:25;61492.13;;;-147.04;100.00
39075;BME280;24826;52.070;20.970;2023-04-01T20:07:33;61464.28;;;-147.04;100.00
39075;BME280;24826;52.070;20.970;2023-04-01T20:10:24;61460.31;;;-147.04;100.00
39075;BME280;24826;52.070;20.970;2023-04-01T20:13:32;61448.38;;;-147.04;100.00
39075;BME280;24826;52.070;20.970;2023-04-01T20:16:21;61480.19;;;-147.04;100.00
39075;BME280;24826;52.070;20.970;2023-04-01T20:19:10;61428.47;;;-147.04;100.00
39075;BME280;24826;52.070;20.970;2023-04-01T20:21:59;61436.44;;;-147.04;100.00
39075;BME280;24826;52.070;20.970;2023-04-01T20:24:46;61446.38;;;-147.04;100.00
39075;BME280;24826;52.070;20.970;2023-04-01T20:27:39;61468.25;;;-147.04;100.00
39075;BME280;24826;52.070;20.970;2023-04-01T20:36:39;61436.44;;;-147.04;100.00
39075;BME280;24826;52.070;20.970;2023-04-01T20:39:43;61464.28;;;-147.04;100.00
39075;BME280;24826;52.070;20.970;2023-04-01T20:43:05;61472.22;;;-147.04;100.00
39075;BME280;24826;52.070;20.970;2023-04-01T20:46:20;61440.41;;;-147.04;100.00
39075;BME280;24826;52.070;20.970;2023-04-01T20:49:14;61440.41;;;-147.04;100.00
39075;BME280;24826;52.070;20.970;2023-04-01T20:58:13;61454.34;;;-147.04;100.00
39075;BME280;24826;52.070;20.970;2023-04-01T21:01:13;61412.56;;;-147.04;100.00
39075;BME280;24826;52.070;20.970;2023-04-01T21:05:00;61448.38;;;-147.04;100.00
39075;BME280;24826;52.070;20.970;2023-04-01T21:07:28;61452.34;;;-147.04;100.00
39075;BME280;24826;52.070;20.970;2023-04-01T21:10:38;61378.78;;;-147.04;100.00
39075;BME280;24826;52.070;20.970;2023-04-01T21:16:32;61456.31;;;-147.04;100.00
39075;BME280;24826;52.070;20.970;2023-04-01T21:22:29;61603.47;;;-147.04;100.00
39075;BME280;24826;52.070;20.970;2023-04-01T21:34:41;61448.38;;;-147.04;100.00
39075;BME280;24826;52.070;20.970;2023-04-01T21:37:43;61408.59;;;-147.04;100.00
39075;BME280;24826;52.070;20.970;2023-04-01T21:41:03;61468.25;;;-147.04;100.00
39075;BME280;24826;52.070;20.970;2023-04-01T21:56:34;61456.31;;;-147.04;100.00
39075;BME280;24826;52.070;20.970;2023-04-01T22:05:43;61424.50;;;-147.04;100.00
39075;BME280;24826;52.070;20.970;2023-04-01T22:14:57;61450.34;;;-147.04;100.00
39075;BME280;24826;52.070;20.970;2023-04-01T22:18:02;61444.41;;;-147.04;100.00
39075;BME280;24826;52.070;20.970;2023-04-01T22:20:55;61440.41;;;-147.04;100.00
39075;BME280;24826;52.070;20.970;2023-04-01T22:27:03;61452.34;;;-147.04;100.00
39075;BME280;24826;52.070;20.970;2023-04-01T22:32:49;61619.38;;;-147.04;100.00
39075;BME280;24826;52.070;20.970;2023-04-01T22:35:47;61402.63;;;-147.04;100.00
39075;BME280;24826;52.070;20.970;2023-04-01T22:38:54;61422.53;;;-147.04;100.00
39075;BME280;24826;52.070;20.970;2023-04-01T22:44:45;61400.66;;;-147.04;100.00
39075;BME280;24826;52.070;20.970;2023-04-01T22:47:50;61454.34;;;-147.04;100.00
39075;BME280;24826;52.070;20.970;2023-04-01T22:51:22;61416.56;;;-147.04;100.00
39075;BME280;24826;52.070;20.970;2023-04-01T22:57:08;61436.44;;;-147.04;100.00
39075;BME280;24826;52.070;20.970;2023-04-01T22:59:59;61444.41;;;-147.04;100.00
39075;BME280;24826;52.070;20.970;2023-04-01T23:03:22;61440.41;;;-147.04;100.00
39075;BME280;24826;52.070;20.970;2023-04-01T23:06:21;61434.44;;;-147.04;100.00
39075;BME280;24826;52.070;20.970;2023-04-01T23:09:12;61428.47;;;-147.04;100.00
39075;BME280;24826;52.070;20.970;2023-04-01T23:12:09;61448.38;;;-147.04;100.00
39075;BME280;24826;52.070;20.970;2023-04-01T23:14:56;61422.53;;;-147.04;100.00
39075;BME280;24826;52.070;20.970;2023-04-01T23:21:34;61428.47;;;-147.04;100.00
39075;BME280;24826;52.070;20.970;2023-04-01T23:24:25;61444.41;;;-147.04;100.00
39075;BME280;24826;52.070;20.970;2023-04-01T23:27:38;61416.56;;;-147.04;100.00
39075;BME280;24826;52.070;20.970;2023-04-01T23:33:29;61432.47;;;-147.04;100.00
39075;BME280;24826;52.070;20.970;2023-04-01T23:36:14;61416.56;;;-147.04;100.00
39075;BME280;24826;52.070;20.970;2023-04-01T23:39:05;61452.34;;;-147.04;100.00
39075;BME280;24826;52.070;20.970;2023-04-01T23:41:54;61539.84;;;-147.04;100.00